Time;durP1;ratioP1;P1;durP2;ratioP2;P2;SDS_P1;SDS_P2;PMS_P1;PMS_P2;Temp;Humidity;BMP_temperature;BMP_pressure;BME280_temperature;BME280_humidity;BME280_pressure;Samples;Min_cycle;Max_cycle;Signal;HPM_P1;HPM_P2
2023/12/09 00:01:17;;;;;;;1999.90;999.90;;;5.60;99.90;;;;;;5116084;28;20032;-76
2023/12/09 00:03:43;;;;;;;1999.90;999.90;;;5.60;99.90;;;;;;5116005;28;20036;-76
2023/12/09 00:06:09;;;;;;;1999.90;999.90;;;5.60;99.90;;;;;;5113938;28;20028;-75
2023/12/09 00:08:35;;;;;;;1999.90;999.90;;;5.60;99.90;;;;;;5115458;28;20051;-76
2023/12/09 00:11:00;;;;;;;1999.90;999.90;;;5.60;99.90;;;;;;5115849;28;20123;-75
2023/12/09 00:13:26;;;;;;;1999.90;999.90;;;5.60;99.90;;;;;;5115534;28;20040;-76
2023/12/09 00:15:51;;;;;;;1999.90;999.90;;;5.60;99.90;;;;;;5115548;28;20045;-76
2023/12/09 00:18:17;;;;;;;1999.90;999.90;;;5.70;99.90;;;;;;5115541;28;20028;-75
2023/12/09 00:20:42;;;;;;;1999.90;999.90;;;5.70;99.90;;;;;;5115762;28;20032;-75
2023/12/09 00:23:08;;;;;;;1999.90;999.90;;;5.60;99.90;;;;;;5116131;28;20078;-75
2023/12/09 00:25:34;;;;;;;1999.90;999.90;;;5.60;99.90;;;;;;5114968;28;20028;-76
2023/12/09 00:27:59;;;;;;;1999.90;999.90;;;5.60;99.90;;;;;;5115167;27;20035;-76
2023/12/09 00:30:25;;;;;;;1999.90;999.90;;;5.60;99.90;;;;;;5115379;28;20058;-75
2023/12/09 00:32:50;;;;;;;1999.90;999.90;;;5.60;99.90;;;;;;5115617;28;20034;-75
2023/12/09 00:35:16;;;;;;;1999.90;999.90;;;5.60;99.90;;;;;;5115386;28;20032;-76
2023/12/09 00:37:41;;;;;;;1999.90;999.90;;;5.60;99.90;;;;;;5115072;27;20099;-75
2023/12/09 00:40:08;;;;;;;1999.90;999.90;;;5.60;99.90;;;;;;5115174;28;20036;-76
2023/12/09 00:42:33;;;;;;;1999.90;999.90;;;5.60;99.90;;;;;;5115260;28;20032;-75
2023/12/09 00:44:59;;;;;;;1999.90;999.90;;;5.60;99.90;;;;;;5115171;28;20036;-75
2023/12/09 00:47:24;;;;;;;1999.90;999.90;;;5.60;99.90;;;;;;5115104;28;20084;-75
2023/12/09 00:49:50;;;;;;;1999.90;999.90;;;5.60;99.90;;;;;;5115140;28;20063;-75
2023/12/09 00:52:15;;;;;;;1999.90;999.90;;;5.60;99.90;;;;;;5115231;28;20485;-76
2023/12/09 00:54:41;;;;;;;1999.90;999.90;;;5.60;99.90;;;;;;5115138;28;20102;-76
2023/12/09 00:57:06;;;;;;;1999.90;999.90;;;5.60;99.90;;;;;;5114475;28;20040;-76
2023/12/09 00:59:32;;;;;;;1999.90;999.90;;;5.60;99.90;;;;;;5115066;28;20485;-76
2023/12/09 01:01:58;;;;;;;1999.90;999.90;;;5.60;99.90;;;;;;5113434;28;20858;-76
2023/12/09 01:04:24;;;;;;;1999.90;999.90;;;5.60;99.90;;;;;;5115222;28;20150;-76
2023/12/09 01:06:49;;;;;;;1999.90;999.90;;;5.60;99.90;;;;;;5114957;28;20032;-76
2023/12/09 01:09:15;;;;;;;1999.90;999.90;;;5.70;99.90;;;;;;5114173;28;20039;-76
2023/12/09 01:11:40;;;;;;;1999.90;999.90;;;5.60;99.90;;;;;;5114856;28;20045;-76
2023/12/09 01:14:06;;;;;;;1999.90;999.90;;;5.60;99.90;;;;;;5114982;28;20032;-75
2023/12/09 01:16:31;;;;;;;1999.90;999.90;;;5.70;99.90;;;;;;5114876;28;20028;-75
2023/12/09 01:18:57;;;;;;;1999.90;999.90;;;5.70;99.90;;;;;;5114804;27;20032;-76
2023/12/09 01:21:22;;;;;;;1999.90;999.90;;;5.60;99.90;;;;;;5114698;28;20040;-76
2023/12/09 01:23:48;;;;;;;1999.90;999.90;;;5.60;99.90;;;;;;5114586;28;20024;-76
2023/12/09 01:26:14;;;;;;;1999.90;999.90;;;5.60;99.90;;;;;;5114330;28;20032;-76
2023/12/09 01:28:39;;;;;;;1999.90;999.90;;;5.60;99.90;;;;;;5114514;28;20493;-76
2023/12/09 01:31:05;;;;;;;1999.90;999.90;;;5.60;99.90;;;;;;5113033;28;20493;-75
2023/12/09 01:33:32;;;;;;;1999.90;999.90;;;5.60;99.90;;;;;;5114572;28;20519;-75
2023/12/09 01:35:57;;;;;;;1999.90;999.90;;;5.60;99.90;;;;;;5114650;28;20036;-75
2023/12/09 01:38:23;;;;;;;1999.90;999.90;;;5.60;99.90;;;;;;5112775;28;20066;-75
2023/12/09 01:40:53;;;;;;;1999.90;999.90;;;5.60;99.90;;;;;;5114538;28;20040;-76
2023/12/09 01:43:19;;;;;;;1999.90;999.90;;;5.60;99.90;;;;;;5114377;28;20078;-76
2023/12/09 01:45:45;;;;;;;1999.90;999.90;;;5.60;99.90;;;;;;5114167;28;20081;-75
2023/12/09 01:48:11;;;;;;;1999.90;999.90;;;5.60;99.90;;;;;;5115152;27;20047;-76
2023/12/09 01:50:37;;;;;;;1999.90;999.90;;;5.60;99.90;;;;;;5116537;28;20046;-75
2023/12/09 01:53:02;;;;;;;1999.90;999.90;;;5.60;99.90;;;;;;5117787;28;20028;-75
2023/12/09 01:55:28;;;;;;;1999.90;999.90;;;5.60;99.90;;;;;;5117499;28;20039;-75
2023/12/09 01:57:54;;;;;;;1999.90;999.90;;;5.60;99.90;;;;;;5117334;27;20485;-76
2023/12/09 02:00:20;;;;;;;1999.90;999.90;;;5.60;99.90;;;;;;5117958;28;20063;-75
2023/12/09 02:02:46;;;;;;;1999.90;999.90;;;5.60;99.90;;;;;;5117897;28;20167;-76
2023/12/09 02:05:11;;;;;;;1999.90;999.90;;;5.70;99.90;;;;;;5117878;28;20036;-76
2023/12/09 02:07:37;;;;;;;1999.90;999.90;;;5.70;99.90;;;;;;5117402;27;20036;-75
2023/12/09 02:10:03;;;;;;;1999.90;999.90;;;5.70;99.90;;;;;;5115941;28;20062;-76
2023/12/09 02:12:52;;;;;;;1999.90;999.90;;;5.70;99.90;;;;;;5117458;28;20094;-76
2023/12/09 02:15:30;;;;;;;1999.90;999.90;;;5.70;99.90;;;;;;5116124;28;20025;-75
2023/12/09 02:18:03;;;;;;;1999.90;999.90;;;5.80;99.90;;;;;;5116095;27;20032;-76
2023/12/09 02:20:29;;;;;;;1999.90;999.90;;;5.80;99.90;;;;;;5116013;28;20064;-76
2023/12/09 02:23:08;;;;;;;1999.90;999.90;;;5.70;99.90;;;;;;5117558;28;20028;-76
2023/12/09 02:25:35;;;;;;;1999.90;999.90;;;5.80;99.90;;;;;;5115852;28;20035;-76
2023/12/09 02:28:06;;;;;;;1999.90;999.90;;;5.70;99.90;;;;;;5117165;27;20038;-76
2023/12/09 02:30:57;;;;;;;1999.90;999.90;;;5.80;99.90;;;;;;5117372;28;20123;-75
2023/12/09 02:33:24;;;;;;;1999.90;999.90;;;5.80;99.90;;;;;;5117402;28;20028;-75
2023/12/09 02:35:51;;;;;;;1999.90;999.90;;;5.80;99.90;;;;;;5117044;28;20052;-75
2023/12/09 02:38:18;;;;;;;1999.90;999.90;;;5.80;99.90;;;;;;5116872;27;20467;-76
2023/12/09 02:40:45;;;;;;;1999.90;999.90;;;5.70;99.90;;;;;;5116853;28;20119;-75
2023/12/09 02:43:12;;;;;;;1999.90;999.90;;;5.70;99.90;;;;;;5115482;28;20033;-75
2023/12/09 02:45:38;;;;;;;1999.90;999.90;;;5.70;99.90;;;;;;5116928;28;20119;-75
2023/12/09 02:48:04;;;;;;;1999.90;999.90;;;5.70;99.90;;;;;;5116877;27;20103;-76
2023/12/09 02:50:30;;;;;;;1999.90;999.90;;;5.70;99.90;;;;;;5116919;28;20040;-76
2023/12/09 02:52:56;;;;;;;1999.90;999.90;;;5.70;99.90;;;;;;5117093;28;20028;-75
2023/12/09 02:55:21;;;;;;;1999.90;999.90;;;5.70;99.90;;;;;;5117059;28;20389;-75
2023/12/09 02:57:47;;;;;;;1999.90;999.90;;;5.70;99.90;;;;;;5115773;27;20599;-75
2023/12/09 03:00:13;;;;;;;1999.90;999.90;;;5.70;99.90;;;;;;5115769;27;20493;-75
2023/12/09 03:02:39;;;;;;;1999.90;999.90;;;5.70;99.90;;;;;;5115064;28;20032;-76
2023/12/09 03:05:04;;;;;;;1999.90;999.90;;;5.70;99.90;;;;;;5116663;28;20479;-76
2023/12/09 03:07:30;;;;;;;1999.90;999.90;;;5.70;99.90;;;;;;5116588;28;20038;-76
2023/12/09 03:09:55;;;;;;;1999.90;999.90;;;5.70;99.90;;;;;;5115944;28;20046;-76
2023/12/09 03:12:21;;;;;;;1999.90;999.90;;;5.70;99.90;;;;;;5116505;28;20040;-76
2023/12/09 03:14:47;;;;;;;1999.90;999.90;;;5.70;99.90;;;;;;5116683;28;20036;-75
2023/12/09 03:17:12;;;;;;;1999.90;999.90;;;5.70;99.90;;;;;;5116504;28;20110;-75
2023/12/09 03:19:38;;;;;;;1999.90;999.90;;;5.70;99.90;;;;;;5116520;27;20081;-75
2023/12/09 03:22:03;;;;;;;1999.90;999.90;;;5.70;99.90;;;;;;5116616;28;20032;-75
2023/12/09 03:24:29;;;;;;;1999.90;999.90;;;5.70;99.90;;;;;;5116476;28;20099;-75
2023/12/09 03:26:55;;;;;;;1999.90;999.90;;;5.70;99.90;;;;;;5116148;28;20039;-75
2023/12/09 03:29:21;;;;;;;1999.90;999.90;;;5.70;99.90;;;;;;5115986;28;20036;-76
2023/12/09 03:31:47;;;;;;;1999.90;999.90;;;5.70;99.90;;;;;;5116438;28;20040;-75
2023/12/09 03:34:13;;;;;;;1999.90;999.90;;;5.70;99.90;;;;;;5116425;28;20499;-76
2023/12/09 03:36:39;;;;;;;1999.90;999.90;;;5.60;99.90;;;;;;5115959;28;20067;-75
2023/12/09 03:39:06;;;;;;;1999.90;999.90;;;5.60;99.90;;;;;;5116257;28;20041;-76
2023/12/09 03:41:32;;;;;;;1999.90;999.90;;;5.60;99.90;;;;;;5114595;28;20032;-75
2023/12/09 03:43:58;;;;;;;1999.90;999.90;;;5.60;99.90;;;;;;5115938;28;20452;-76
2023/12/09 03:46:23;;;;;;;1999.90;999.90;;;5.50;99.90;;;;;;5115861;28;20028;-75
2023/12/09 03:48:49;;;;;;;1999.90;999.90;;;5.50;99.90;;;;;;5115943;27;20401;-75
2023/12/09 03:51:14;;;;;;;1999.90;999.90;;;5.40;99.90;;;;;;5114522;28;20115;-76
2023/12/09 03:53:43;;;;;;;1999.90;999.90;;;5.30;99.90;;;;;;5115910;28;20123;-76
2023/12/09 03:56:13;;;;;;;1999.90;999.90;;;5.30;99.90;;;;;;5114140;28;20039;-76
2023/12/09 03:58:38;;;;;;;1999.90;999.90;;;5.30;99.90;;;;;;5115343;28;20119;-76
2023/12/09 04:01:04;;;;;;;1999.90;999.90;;;5.30;99.90;;;;;;5115872;28;20557;-75
2023/12/09 04:03:30;;;;;;;1999.90;999.90;;;5.30;99.90;;;;;;5115976;28;20153;-75
2023/12/09 04:05:55;;;;;;;1999.90;999.90;;;5.30;99.90;;;;;;5114291;28;20126;-75
2023/12/09 04:08:21;;;;;;;1999.90;999.90;;;5.40;99.90;;;;;;5115614;27;20489;-75
2023/12/09 04:10:47;;;;;;;1999.90;999.90;;;5.40;99.90;;;;;;5115256;27;20032;-75
2023/12/09 04:13:12;;;;;;;1999.90;999.90;;;5.50;99.90;;;;;;5115401;28;20385;-75
2023/12/09 04:15:38;;;;;;;1999.90;999.90;;;5.50;99.90;;;;;;5115531;28;20503;-75
2023/12/09 04:18:04;;;;;;;1999.90;999.90;;;5.50;99.90;;;;;;5115369;27;20024;-76
2023/12/09 04:20:30;;;;;;;1999.90;999.90;;;5.50;99.90;;;;;;5115675;28;20087;-75
2023/12/09 04:22:55;;;;;;;1999.90;999.90;;;5.50;99.90;;;;;;5115607;28;20107;-75
2023/12/09 04:25:21;;;;;;;1999.90;999.90;;;5.50;99.90;;;;;;5115875;28;20813;-75
2023/12/09 04:27:47;;;;;;;1999.90;999.90;;;5.50;99.90;;;;;;5113798;27;20028;-76
2023/12/09 04:30:13;;;;;;;1999.90;999.90;;;5.70;99.90;;;;;;5115426;28;20032;-75
2023/12/09 04:32:39;;;;;;;1999.90;999.90;;;5.70;99.90;;;;;;5115252;28;20366;-75
2023/12/09 04:35:05;;;;;;;1999.90;999.90;;;5.90;99.90;;;;;;5115400;28;20040;-76
2023/12/09 04:37:30;;;;;;;1999.90;999.90;;;5.90;99.90;;;;;;5115032;28;20070;-75
2023/12/09 04:39:56;;;;;;;1999.90;999.90;;;5.90;99.90;;;;;;5113472;28;20070;-75
2023/12/09 04:42:21;;;;;;;1999.90;999.90;;;6.00;99.90;;;;;;5115483;28;20032;-76
2023/12/09 04:44:47;;;;;;;1999.90;999.90;;;6.10;99.90;;;;;;5115278;28;20090;-75
2023/12/09 04:47:12;;;;;;;1999.90;999.90;;;6.10;99.90;;;;;;5114650;28;20040;-75
2023/12/09 04:49:38;;;;;;;1999.90;999.90;;;6.10;99.90;;;;;;5114975;27;20111;-75
2023/12/09 04:52:04;;;;;;;1999.90;999.90;;;6.00;99.90;;;;;;5115246;28;20551;-75
2023/12/09 04:54:30;;;;;;;1999.90;999.90;;;5.80;99.90;;;;;;5115207;28;20028;-76
2023/12/09 04:56:56;;;;;;;1999.90;999.90;;;5.70;99.90;;;;;;5114791;28;20497;-76
2023/12/09 04:59:22;;;;;;;1999.90;999.90;;;5.60;99.90;;;;;;5115020;27;20032;-75
2023/12/09 05:01:48;;;;;;;1999.90;999.90;;;5.50;99.90;;;;;;5114943;28;20033;-76
2023/12/09 05:04:14;;;;;;;1999.90;999.90;;;5.40;99.90;;;;;;5114873;28;20359;-75
2023/12/09 05:06:39;;;;;;;1999.90;999.90;;;5.40;99.90;;;;;;5114976;28;20085;-75
2023/12/09 05:09:05;;;;;;;1999.90;999.90;;;5.40;99.90;;;;;;5114015;28;20032;-75
2023/12/09 05:11:34;;;;;;;1999.90;999.90;;;5.40;99.90;;;;;;5114829;28;20121;-75
2023/12/09 05:13:59;;;;;;;1999.90;999.90;;;5.50;99.90;;;;;;5114834;28;20162;-76
2023/12/09 05:16:25;;;;;;;1999.90;999.90;;;5.50;99.90;;;;;;5114521;28;20131;-76
2023/12/09 05:18:52;;;;;;;1999.90;999.90;;;5.50;99.90;;;;;;5114862;28;20103;-76
2023/12/09 05:21:17;;;;;;;1999.90;999.90;;;5.60;99.90;;;;;;5114755;28;20032;-76
2023/12/09 05:23:43;;;;;;;1999.90;999.90;;;5.60;99.90;;;;;;5116027;28;20059;-76
2023/12/09 05:26:09;;;;;;;1999.90;999.90;;;5.60;99.90;;;;;;5118296;28;20439;-76
2023/12/09 05:28:35;;;;;;;1999.90;999.90;;;5.70;99.90;;;;;;5118236;27;20024;-76
2023/12/09 05:31:01;;;;;;;1999.90;999.90;;;5.70;99.90;;;;;;5118255;28;20062;-76
2023/12/09 05:33:26;;;;;;;1999.90;999.90;;;5.70;99.90;;;;;;5118381;28;20030;-77
2023/12/09 05:35:52;;;;;;;1999.90;999.90;;;5.70;99.90;;;;;;5118057;28;20493;-75
2023/12/09 05:38:17;;;;;;;1999.90;999.90;;;5.70;99.90;;;;;;5118193;28;20547;-75
2023/12/09 05:40:43;;;;;;;1999.90;999.90;;;5.70;99.90;;;;;;5118409;28;20042;-76
2023/12/09 05:43:08;;;;;;;1999.90;999.90;;;5.80;99.90;;;;;;5118097;28;20038;-75
2023/12/09 05:45:34;;;;;;;1999.90;999.90;;;5.80;99.90;;;;;;5118151;28;20396;-75
2023/12/09 05:47:59;;;;;;;1999.90;999.90;;;5.80;99.90;;;;;;5117865;27;20397;-75
2023/12/09 05:50:25;;;;;;;1999.90;999.90;;;5.80;99.90;;;;;;5117928;28;20043;-75
2023/12/09 05:52:50;;;;;;;1999.90;999.90;;;5.80;99.90;;;;;;5117896;28;20032;-75
2023/12/09 05:55:16;;;;;;;1999.90;999.90;;;5.80;99.90;;;;;;5117974;28;20042;-76
2023/12/09 05:57:43;;;;;;;1999.90;999.90;;;5.90;99.90;;;;;;5117628;27;20099;-76
2023/12/09 06:00:10;;;;;;;1999.90;999.90;;;5.90;99.90;;;;;;5118025;28;20455;-76
2023/12/09 06:02:35;;;;;;;1999.90;999.90;;;5.90;99.90;;;;;;5117529;28;20123;-76
2023/12/09 06:05:01;;;;;;;1999.90;999.90;;;6.00;99.90;;;;;;5118256;28;20107;-75
2023/12/09 06:07:26;;;;;;;1999.90;999.90;;;6.00;99.90;;;;;;5117655;28;20032;-75
2023/12/09 06:09:52;;;;;;;1999.90;999.90;;;6.00;99.90;;;;;;5117801;27;20039;-75
2023/12/09 06:12:18;;;;;;;1999.90;999.90;;;6.10;99.90;;;;;;5117912;28;20032;-75
2023/12/09 06:14:43;;;;;;;1999.90;999.90;;;6.10;99.90;;;;;;5117891;28;20111;-76
2023/12/09 06:17:09;;;;;;;1999.90;999.90;;;6.10;99.90;;;;;;5117199;28;20036;-75
2023/12/09 06:19:34;;;;;;;1999.90;999.90;;;6.10;99.90;;;;;;5098005;28;20036;-76
2023/12/09 06:22:00;;;;;;;1999.90;999.90;;;6.10;99.90;;;;;;5097055;28;20032;-76
2023/12/09 06:24:26;;;;;;;1999.90;999.90;;;6.10;99.90;;;;;;5097258;28;20028;-76
2023/12/09 06:26:51;;;;;;;1999.90;999.90;;;6.10;99.90;;;;;;5096860;28;20032;-76
2023/12/09 06:29:17;;;;;;;1999.90;999.90;;;6.10;99.90;;;;;;5097037;28;20033;-75
2023/12/09 06:31:42;;;;;;;1999.90;999.90;;;6.00;99.90;;;;;;5096971;28;20040;-76
2023/12/09 06:34:08;;;;;;;1999.90;999.90;;;6.10;99.90;;;;;;5096809;28;20104;-76
2023/12/09 06:36:33;;;;;;;1999.90;999.90;;;6.00;99.90;;;;;;5096489;28;20038;-75
2023/12/09 06:38:59;;;;;;;1999.90;999.90;;;5.90;99.90;;;;;;5096887;28;20037;-75
2023/12/09 06:41:24;;;;;;;1999.90;999.90;;;5.90;99.90;;;;;;5097020;28;20082;-75
2023/12/09 06:43:50;;;;;;;1999.90;999.90;;;5.90;99.90;;;;;;5096862;28;20486;-75
2023/12/09 06:46:15;;;;;;;1999.90;999.90;;;5.90;99.90;;;;;;5094954;28;20044;-76
2023/12/09 06:48:41;;;;;;;1999.90;999.90;;;5.90;99.90;;;;;;5095100;28;20032;-75
2023/12/09 06:51:14;;;;;;;1999.90;999.90;;;5.90;99.90;;;;;;5096812;28;20040;-76
2023/12/09 06:53:39;;;;;;;1999.90;999.90;;;5.90;99.90;;;;;;5096595;28;20258;-76
2023/12/09 06:56:06;;;;;;;1999.90;999.90;;;5.90;99.90;;;;;;5096410;28;20123;-76
2023/12/09 06:58:31;;;;;;;1999.90;999.90;;;5.90;99.90;;;;;;5096165;28;20486;-75
2023/12/09 07:00:57;;;;;;;1999.90;999.90;;;5.90;99.90;;;;;;5094931;28;20048;-77
2023/12/09 07:03:22;;;;;;;1999.90;999.90;;;5.90;99.90;;;;;;5096600;28;20041;-76
2023/12/09 07:05:48;;;;;;;1999.90;999.90;;;5.90;99.90;;;;;;5096870;28;20087;-80
2023/12/09 07:08:14;;;;;;;1999.90;999.90;;;5.90;99.90;;;;;;5095750;28;20083;-75
2023/12/09 07:10:44;;;;;;;1999.90;999.90;;;5.90;99.90;;;;;;5095891;28;20066;-76
2023/12/09 07:13:10;;;;;;;1999.90;999.90;;;5.90;99.90;;;;;;5096511;28;20029;-75
2023/12/09 07:15:35;;;;;;;1999.90;999.90;;;5.90;99.90;;;;;;5096195;28;20029;-80
2023/12/09 07:18:01;;;;;;;1999.90;999.90;;;6.00;99.90;;;;;;5095780;28;20032;-74
2023/12/09 07:20:26;;;;;;;1999.90;999.90;;;6.00;99.90;;;;;;5096274;28;20587;-74
2023/12/09 07:22:52;;;;;;;1999.90;999.90;;;6.10;99.90;;;;;;5096674;28;20059;-74
2023/12/09 07:25:18;;;;;;;1999.90;999.90;;;6.10;99.90;;;;;;5094893;28;20682;-76
2023/12/09 07:27:43;;;;;;;1999.90;999.90;;;6.20;99.90;;;;;;5096175;28;20032;-74
2023/12/09 07:30:09;;;;;;;1999.90;999.90;;;6.20;99.90;;;;;;5096329;28;20094;-75
2023/12/09 07:32:35;;;;;;;1999.90;999.90;;;6.20;99.90;;;;;;5097285;28;20049;-76
2023/12/09 07:35:00;;;;;;;1999.90;999.90;;;6.30;99.90;;;;;;5096828;28;20525;-75
2023/12/09 07:37:26;;;;;;;1999.90;999.90;;;6.30;99.90;;;;;;5096178;28;20048;-77
2023/12/09 07:39:51;;;;;;;1999.90;999.90;;;6.40;99.90;;;;;;5095758;28;20051;-75
2023/12/09 07:42:17;;;;;;;1999.90;999.90;;;6.40;99.90;;;;;;5096702;28;20518;-77
2023/12/09 07:44:42;;;;;;;1999.90;999.90;;;6.50;99.90;;;;;;5096102;28;20386;-77
2023/12/09 07:47:08;;;;;;;1999.90;999.90;;;6.40;99.90;;;;;;5094827;28;20033;-76
2023/12/09 07:49:34;;;;;;;1999.90;999.90;;;6.50;99.90;;;;;;5095929;28;20025;-77
2023/12/09 07:51:59;;;;;;;1999.90;999.90;;;6.60;99.90;;;;;;5096117;28;20041;-76
2023/12/09 07:54:25;;;;;;;1999.90;999.90;;;6.60;99.90;;;;;;5075702;28;20033;-74
2023/12/09 07:56:50;;;;;;;1999.90;999.90;;;6.70;99.90;;;;;;5075350;28;20029;-76
2023/12/09 07:59:16;;;;;;;1999.90;999.90;;;6.70;99.90;;;;;;5074373;28;20037;-75
2023/12/09 08:01:42;;;;;;;1999.90;999.90;;;6.70;99.90;;;;;;5076270;28;20107;-75
2023/12/09 08:04:07;;;;;;;1999.90;999.90;;;6.70;99.90;;;;;;5090158;28;20032;-75
2023/12/09 08:06:33;;;;;;;1999.90;999.90;;;6.70;99.90;;;;;;5094962;28;20559;-76
2023/12/09 08:08:58;;;;;;;1999.90;999.90;;;6.60;99.90;;;;;;5093238;28;20036;-76
2023/12/09 08:11:24;;;;;;;1999.90;999.90;;;6.60;99.90;;;;;;5094234;28;20044;-77
2023/12/09 08:13:49;;;;;;;1999.90;999.90;;;6.60;99.90;;;;;;5095562;28;20398;-77
2023/12/09 08:16:15;;;;;;;1999.90;999.90;;;6.60;99.90;;;;;;5094462;28;20771;-75
2023/12/09 08:18:42;;;;;;;1999.90;999.90;;;6.70;99.90;;;;;;5093516;28;20521;-75
2023/12/09 08:21:09;;;;;;;1999.90;999.90;;;6.60;99.90;;;;;;5095223;28;20029;-75
2023/12/09 08:23:35;;;;;;;1999.90;999.90;;;6.70;99.90;;;;;;5095950;28;20029;-75
2023/12/09 08:26:01;;;;;;;1999.90;999.90;;;6.70;99.90;;;;;;5095592;28;20032;-77
2023/12/09 08:28:27;;;;;;;1999.90;999.90;;;6.80;99.90;;;;;;5095042;28;20439;-76
2023/12/09 08:30:53;;;;;;;1999.90;999.90;;;6.80;99.90;;;;;;5095168;28;20493;-76
2023/12/09 08:33:18;;;;;;;1999.90;999.90;;;6.70;99.90;;;;;;5095037;28;20058;-76
2023/12/09 08:35:45;;;;;;;1999.90;999.90;;;6.70;99.90;;;;;;5094428;28;20032;-76
2023/12/09 08:38:12;;;;;;;1999.90;999.90;;;6.80;99.90;;;;;;5093988;28;20029;-76
2023/12/09 08:40:37;;;;;;;1999.90;999.90;;;6.90;99.90;;;;;;5091990;28;20466;-76
2023/12/09 08:43:03;;;;;;;1999.90;999.90;;;6.90;99.90;;;;;;5094163;28;20383;-76
2023/12/09 08:45:31;;;;;;;1999.90;999.90;;;7.00;99.90;;;;;;5092955;28;20445;-76
2023/12/09 08:47:57;;;;;;;1999.90;999.90;;;7.20;99.90;;;;;;5092563;28;20036;-76
2023/12/09 08:50:22;;;;;;;1999.90;999.90;;;7.20;99.90;;;;;;5092965;28;20398;-76
2023/12/09 08:52:48;;;;;;;1999.90;999.90;;;7.30;99.90;;;;;;5093256;28;20090;-76
2023/12/09 08:55:13;;;;;;;1999.90;999.90;;;7.40;99.90;;;;;;5093073;28;20033;-76
2023/12/09 08:57:39;;;;;;;1999.90;999.90;;;7.40;99.90;;;;;;5092463;28;20090;-76
2023/12/09 09:00:08;;;;;;;1999.90;999.90;;;7.30;99.90;;;;;;5096009;28;20107;-76
2023/12/09 09:02:34;;;;;;;1999.90;999.90;;;7.10;99.90;;;;;;5096885;28;20032;-76
2023/12/09 09:04:59;;;;;;;1999.90;999.90;;;7.10;99.90;;;;;;5098606;28;20119;-76
2023/12/09 09:07:25;;;;;;;1999.90;999.90;;;7.20;99.90;;;;;;5097819;28;20115;-76
2023/12/09 09:09:50;;;;;;;1999.90;999.90;;;7.20;99.90;;;;;;5097849;28;20033;-76
2023/12/09 09:12:16;;;;;;;1999.90;999.90;;;7.10;99.90;;;;;;5097884;28;20174;-76
2023/12/09 09:14:41;;;;;;;1999.90;999.90;;;7.00;99.90;;;;;;5098194;28;20048;-76
2023/12/09 09:17:07;;;;;;;1999.90;999.90;;;7.20;99.90;;;;;;5096527;28;20504;-76
2023/12/09 09:19:34;;;;;;;1999.90;999.90;;;7.20;99.90;;;;;;5098009;28;20419;-76
2023/12/09 09:21:59;;;;;;;1999.90;999.90;;;7.20;99.90;;;;;;5097877;28;20056;-76
2023/12/09 09:24:25;;;;;;;1999.90;999.90;;;7.30;99.90;;;;;;5098053;28;20119;-76
2023/12/09 09:26:50;;;;;;;1999.90;999.90;;;7.30;99.90;;;;;;5097578;28;20047;-76
2023/12/09 09:29:16;;;;;;;1999.90;999.90;;;7.40;99.90;;;;;;5095733;28;20446;-76
2023/12/09 09:31:41;;;;;;;1999.90;999.90;;;7.40;99.90;;;;;;5097729;28;20033;-76
2023/12/09 09:34:07;;;;;;;1999.90;999.90;;;7.50;99.90;;;;;;5097504;28;20033;-76
2023/12/09 09:36:32;;;;;;;1999.90;999.90;;;7.40;99.90;;;;;;5096225;28;20032;-76
2023/12/09 09:38:58;;;;;;;1999.90;999.90;;;7.60;99.90;;;;;;5097713;28;20037;-76
2023/12/09 09:41:32;;;;;;;1999.90;999.90;;;7.60;99.90;;;;;;5097759;28;20032;-76
2023/12/09 09:44:07;;;;;;;1999.90;999.90;;;7.60;99.90;;;;;;5097521;28;20059;-76
2023/12/09 09:46:34;;;;;;;1999.90;999.90;;;7.60;99.90;;;;;;5097286;28;20076;-76
2023/12/09 09:49:04;;;;;;;1999.90;999.90;;;7.70;99.90;;;;;;5097418;28;20043;-76
2023/12/09 09:51:31;;;;;;;1999.90;999.90;;;7.90;99.90;;;;;;5095909;28;20517;-76
2023/12/09 09:54:07;;;;;;;1999.90;999.90;;;7.80;99.90;;;;;;5097124;28;20048;-76
2023/12/09 09:56:34;;;;;;;1999.90;999.90;;;7.80;99.90;;;;;;5097135;28;20071;-76
2023/12/09 09:58:59;;;;;;;1999.90;999.90;;;8.00;99.90;;;;;;5097308;28;20036;-76
2023/12/09 10:01:26;;;;;;;1999.90;999.90;;;8.00;99.90;;;;;;5097329;28;20040;-77
2023/12/09 10:03:51;;;;;;;1999.90;999.90;;;8.00;99.90;;;;;;5097028;28;20035;-76
2023/12/09 10:06:18;;;;;;;1999.90;999.90;;;7.90;99.90;;;;;;5097306;28;20036;-76
2023/12/09 10:08:44;;;;;;;1999.90;999.90;;;7.90;99.90;;;;;;5094450;28;20036;-76
2023/12/09 10:11:10;;;;;;;1999.90;999.90;;;7.80;99.90;;;;;;5097457;28;20036;-76
2023/12/09 10:13:35;;;;;;;1999.90;999.90;;;7.70;99.90;;;;;;5097769;28;20426;-76
2023/12/09 10:16:01;;;;;;;1999.90;999.90;;;7.70;99.90;;;;;;5096903;28;20032;-76
2023/12/09 10:18:26;;;;;;;1999.90;999.90;;;7.80;99.90;;;;;;5091145;28;20041;-76
2023/12/09 10:20:52;;;;;;;1999.90;999.90;;;7.90;99.90;;;;;;5098704;28;20036;-76
2023/12/09 10:23:19;;;;;;;1999.90;999.90;;;7.90;99.90;;;;;;5097224;28;20043;-76
2023/12/09 10:25:47;;;;;;;1999.90;999.90;;;7.90;99.90;;;;;;5095652;28;20036;-78
2023/12/09 10:28:13;;;;;;;1999.90;999.90;;;7.90;99.90;;;;;;5097273;28;20033;-76
2023/12/09 10:30:41;;;;;;;1999.90;999.90;;;7.90;99.90;;;;;;5089757;28;20129;-77
2023/12/09 10:33:08;;;;;;;1999.90;999.90;;;7.80;99.90;;;;;;5081999;28;20123;-80
2023/12/09 10:35:34;;;;;;;1999.90;999.90;;;7.80;99.90;;;;;;5117107;28;20032;-80
2023/12/09 10:38:03;;;;;;;1999.90;999.90;;;7.80;99.90;;;;;;5104735;28;20047;-84
2023/12/09 10:40:29;;;;;;;1999.90;999.90;;;7.60;99.90;;;;;;5096159;28;20036;-76
2023/12/09 10:42:56;;;;;;;1999.90;999.90;;;7.70;99.90;;;;;;5096805;28;20390;-76
2023/12/09 10:45:22;;;;;;;1999.90;999.90;;;7.80;99.90;;;;;;5096560;28;20024;-77
2023/12/09 10:47:48;;;;;;;1999.90;999.90;;;7.70;99.90;;;;;;5096318;28;20039;-77
2023/12/09 10:50:13;;;;;;;1999.90;999.90;;;7.80;99.90;;;;;;5096701;28;20028;-76
2023/12/09 10:52:39;;;;;;;1999.90;999.90;;;7.60;99.90;;;;;;5096734;28;20083;-77
2023/12/09 10:55:05;;;;;;;1999.90;999.90;;;7.60;99.90;;;;;;5096763;28;20039;-76
2023/12/09 10:57:33;;;;;;;1999.90;999.90;;;7.50;99.90;;;;;;5096549;28;20516;-77
2023/12/09 11:00:01;;;;;;;1999.90;999.90;;;7.50;99.90;;;;;;5098489;28;20039;-77
2023/12/09 11:02:26;;;;;;;1999.90;999.90;;;7.40;99.90;;;;;;5098913;28;20531;-78
2023/12/09 11:04:53;;;;;;;1999.90;999.90;;;7.50;99.90;;;;;;5099478;28;20083;-78
2023/12/09 11:07:19;;;;;;;1999.90;999.90;;;7.50;99.90;;;;;;5097670;28;20044;-77
2023/12/09 11:09:46;;;;;;;1999.90;999.90;;;7.70;99.90;;;;;;5097343;28;20040;-76
2023/12/09 11:12:25;;;;;;;1999.90;999.90;;;7.80;99.90;;;;;;5097254;28;20067;-78
2023/12/09 11:14:51;;;;;;;1999.90;999.90;;;8.00;99.90;;;;;;5095840;28;20029;-77
2023/12/09 11:17:37;;;;;;;1999.90;999.90;;;8.10;99.90;;;;;;5096010;28;20094;-77
2023/12/09 11:20:13;;;;;;;1999.90;999.90;;;8.20;99.90;;;;;;5096244;28;20025;-76
2023/12/09 11:22:41;;;;;;;1999.90;999.90;;;8.20;99.90;;;;;;5097833;28;20028;-78
2023/12/09 11:25:18;;;;;;;1999.90;999.90;;;8.30;99.90;;;;;;5097565;28;20032;-77
2023/12/09 11:27:44;;;;;;;1999.90;999.90;;;8.40;99.90;;;;;;5096215;28;20841;-79
2023/12/09 11:30:32;;;;;;;1999.90;999.90;;;8.40;99.90;;;;;;5097224;28;20032;-78
2023/12/09 11:32:59;;;;;;;1999.90;999.90;;;8.30;99.90;;;;;;5097810;28;20032;-79
2023/12/09 11:35:26;;;;;;;1999.90;999.90;;;8.30;99.90;;;;;;5097650;28;20478;-79
2023/12/09 11:37:53;;;;;;;1999.90;999.90;;;8.30;99.90;;;;;;5097327;28;20048;-79
2023/12/09 11:40:19;;;;;;;1999.90;999.90;;;8.30;99.90;;;;;;5096699;28;20028;-77
2023/12/09 11:42:46;;;;;;;1999.90;999.90;;;8.30;99.90;;;;;;5096335;28;20036;-77
2023/12/09 11:45:12;;;;;;;1999.90;999.90;;;8.30;99.90;;;;;;5097784;28;20810;-78
2023/12/09 11:47:38;;;;;;;1999.90;999.90;;;8.40;99.90;;;;;;5096320;28;20037;-78
2023/12/09 11:50:07;;;;;;;1999.90;999.90;;;8.40;99.90;;;;;;5095579;28;20037;-77
2023/12/09 11:52:33;;;;;;;1999.90;999.90;;;8.40;99.90;;;;;;5094832;28;20041;-77
2023/12/09 11:55:03;;;;;;;1999.90;999.90;;;8.40;99.90;;;;;;5095676;28;20035;-77
2023/12/09 11:57:31;;;;;;;1999.90;999.90;;;8.40;99.90;;;;;;5096040;28;20118;-77
2023/12/09 11:59:56;;;;;;;1999.90;999.90;;;8.40;99.90;;;;;;5094190;28;20032;-78
2023/12/09 12:02:22;;;;;;;1999.90;999.90;;;8.40;99.90;;;;;;5095472;28;20032;-77
2023/12/09 12:04:48;;;;;;;1999.90;999.90;;;8.40;99.90;;;;;;5088912;28;20037;-77